Relevés horaires Matro (Suisse)


Relevés horaires à Matro - Vendredi 17 Juin 2022
Heure UTC1 Température [°C] Vent [km/h] Hum. [%] Pres.4 [hPa] Visi. [Km] Nébu. [octa] Préc.5 [mm] Cond.
2m. Res. Ros. Dir.2 Vit. Moy. Raf.3
23:00 14.3 12.6 0.7 NNO 22.2 -- 31.5 39 850(0.3/3h) -- -- -- --
22:00 14.1 12.8 1.0 NO 16.7 -- 33.3 41 850(0.8/3h) -- -- -- --
21:00 14.4 12.5 1.7 NNO 25.9 -- 50.0 42 850(0.8/3h) -- -- -- --
20:00 14.6 12.8 1.1 NNO 25.9 -- 44.4 40 850(0.9/3h) -- -- -- --
19:00 15.2 13.3 0.3 NNO 31.5 -- 50.0 36 850(0.4/3h) -- -- -- --
18:00 15.7 14.1 -0.1 NO 27.8 -- 48.2 34 850(0.1/3h) -- -- -- --
17:00 16.2 14.7 -0.8 NO 29.6 -- 46.3 31 850(0.0/3h) -- -- -- --
16:00 16.5 15.2 -0.8 NNO 25.9 -- 40.7 31 850(-0.2/3h) -- -- -- --
15:00 16.7 15.7 0.9 NNO 22.2 -- 42.6 34 850(-0.1/3h) -- -- -- --
14:00 16.1 15.3 -0.7 NNO 16.7 -- 35.2 32 850(-0.2/3h) -- -- -- --
13:00 16.2 15.4 0.9 NNO 16.7 -- 42.6 35 850(0.0/3h) -- -- -- --
12:00 15.6 14.7 0.2 N 16.7 -- 42.6 35 850(0.4/3h) -- -- -- --
11:00 14.6 13.3 0.2 NNO 18.5 -- 37.0 37 850(0.6/3h) -- -- -- --
10:00 14.5 13.2 -- NNO 18.5 -- 42.6 -- 850(0.8/3h) -- -- -- --
09:00 13.5 11.8 2.5 NNO 20.4 -- 38.9 47 850(0.9/3h) -- -- -- --
08:00 12.8 11 2.7 NNO 18.5 -- 38.9 50 850(0.9/3h) -- -- -- --
07:00 12.2 10.1 3.3 NNO 20.4 -- 38.9 54 850(0.8/3h) -- -- -- --
06:00 12.0 9.6 2.7 NO 24.1 -- 44.4 53 850(0.4/3h) -- -- -- --
05:00 11.8 8.8 3.4 NNO 31.5 -- 42.6 56 850(0.1/3h) -- -- -- --
04:00 11.8 8.8 3.3 NNO 31.5 -- 38.9 56 850(-0.3/3h) -- -- -- --
03:00 11.8 8.8 3.3 NNO 31.5 -- 44.4 56 850(-0.5/3h) -- -- -- --
02:00 11.8 9.2 3.1 NNO 25.9 -- 33.3 55 850(-0.4/3h) -- -- -- --
01:00 12.1 9.6 3.1 NNO 25.9 -- 31.5 54 850(-0.2/3h) -- -- -- --
00:00 12.4 10.7 3.0 NO 16.7 -- 46.3 53 850(0.0/3h) -- -- -- --

1 Coordinated Universal Time. Actuellement il est 03:00 locale et 01:00 UTC.

2 Le vent souffle depuis la direction indiquée vers la direction oposée.

3 Les rafales max. sont disponible 40 min après l'heure du relevé.

4 Pour les stations d'altitude (plus de 600m) le géopotentiel du niveau le plus proche de la pression obligatoire est indiqué.

5 Les stations disposant d'un diffuseur peuvent indiquer "trace". Cela signifie que des précipitations ont touchés le sol mais que la quantité est inférieure à 0.1 mm.

Copyright

Les données affichées sur cette page sont la propriété exclusive de Météo Suisse.

Récapitulatif de la journée
Température [°C] Vent [km/h] Ensoleillement4 [h] Precipitations totale5 [mm] Pression [Hpa]
Min1 Max.2 Moy.3 Max. Min Max.
11.6 16.7 0 50.0 13 h 6 min 0 850.0 850.0

1 Température minimale relevée entre 18:00 UTC la veille et 18:00 UTC le jour donné.

2 Température maximale relevée entre 06:00 UTC le jour donné et 06:00 UTC le lendemain.

3 Vent moyen de la journée basé sur les relevés horaires.

4 Ensoleillement en heures relevé entre 06:00 UTC la veille et 06:00 UTC le jour donné.

5 Précipitations totales tombées entre 06:00 UTC la jour donné et 06:00 UTC le lendemain.

Graphiques horaires